createdAt,value
2022-09-02T00:01:17.509Z,100293.45
2022-09-02T00:03:48.524Z,100303.95
2022-09-02T00:06:19.771Z,100300.69
2022-09-02T00:08:50.738Z,100295.08
2022-09-02T00:11:23.968Z,100300.22
2022-09-02T00:13:54.896Z,100300.22
2022-09-02T00:16:26.330Z,100301.38
2022-09-02T00:18:56.702Z,100305.95
2022-09-02T00:21:27.086Z,100305.95
2022-09-02T00:23:57.821Z,100303.72
2022-09-02T00:26:28.130Z,100308.64
2022-09-02T00:28:58.778Z,100308.64
2022-09-02T00:31:29.321Z,100309.67
2022-09-02T00:34:00.562Z,100321.47
2022-09-02T00:36:31.487Z,100321.00
2022-09-02T00:39:02.725Z,100321.23
2022-09-02T00:41:33.377Z,100322.50
2022-09-02T00:44:09.463Z,100316.93
2022-09-02T00:46:40.428Z,100316.93
2022-09-02T00:49:31.780Z,100322.63
2022-09-02T00:55:18.695Z,100320.06
2022-09-02T00:57:54.795Z,100319.59
2022-09-02T01:00:31.273Z,100323.20
2022-09-02T01:03:02.837Z,100323.77
2022-09-02T01:05:39.531Z,100323.77
2022-09-02T01:08:09.919Z,100318.44
2022-09-02T01:10:40.730Z,100329.15
2022-09-02T01:13:14.044Z,100335.67
2022-09-02T01:15:47.934Z,100337.76
2022-09-02T01:18:21.146Z,100336.59
2022-09-02T01:21:12.293Z,100335.51
2022-09-02T01:23:42.938Z,100337.70
2022-09-02T01:26:13.360Z,100337.70
2022-09-02T01:28:43.763Z,100339.16
2022-09-02T01:31:14.136Z,100341.08
2022-09-02T01:33:45.334Z,100353.08
2022-09-02T01:36:16.023Z,100351.55
2022-09-02T01:38:46.444Z,100358.21
2022-09-02T01:41:16.775Z,100360.30
2022-09-02T01:43:47.071Z,100360.30
2022-09-02T01:46:17.544Z,100356.67
2022-09-02T01:48:47.923Z,100356.67
2022-09-02T01:51:20.580Z,100367.95
2022-09-02T01:53:51.028Z,100369.67
2022-09-02T01:56:21.352Z,100369.44
2022-09-02T01:58:52.742Z,100371.75
2022-09-02T02:01:23.712Z,100371.75
2022-09-02T02:03:54.234Z,100375.63
2022-09-02T02:06:24.925Z,100377.58
2022-09-02T02:08:55.667Z,100372.77
2022-09-02T02:11:26.601Z,100372.77
2022-09-02T02:13:56.921Z,100381.38
2022-09-02T02:16:27.527Z,100373.53
2022-09-02T02:18:58.403Z,100379.03
2022-09-02T02:21:29.332Z,100379.03
2022-09-02T02:24:00.154Z,100377.16
2022-09-02T02:26:30.805Z,100377.16
2022-09-02T02:29:01.505Z,100382.58
2022-09-02T02:31:32.392Z,100382.58
2022-09-02T02:34:02.701Z,100386.77
2022-09-02T02:36:33.126Z,100384.22
2022-09-02T02:39:04.509Z,100385.81
2022-09-02T02:41:34.958Z,100385.81
2022-09-02T02:44:05.618Z,100396.07
2022-09-02T02:46:37.782Z,100401.06
2022-09-02T02:49:08.244Z,100401.55
2022-09-02T02:51:39.730Z,100401.25
2022-09-02T02:54:14.318Z,100402.05
2022-09-02T02:56:44.766Z,100404.04
2022-09-02T02:59:15.188Z,100404.48
2022-09-02T03:01:45.585Z,100413.53
2022-09-02T03:04:16.112Z,100408.27
2022-09-02T03:06:46.647Z,100416.08
2022-09-02T03:09:17.156Z,100414.25
2022-09-02T03:11:48.896Z,100414.25
2022-09-02T03:14:19.602Z,100418.63
2022-09-02T03:16:50.017Z,100418.16
2022-09-02T03:19:20.459Z,100421.19
2022-09-02T03:21:50.882Z,100427.98
2022-09-02T03:24:21.281Z,100427.98
2022-09-02T03:26:51.632Z,100426.47
2022-09-02T03:29:22.235Z,100428.78
2022-09-02T03:31:52.681Z,100429.26
2022-09-02T03:34:24.597Z,100436.35
2022-09-02T03:36:55.154Z,100439.75
2022-09-02T03:39:25.599Z,100439.75
2022-09-02T03:41:56.062Z,100451.47
2022-09-02T03:44:26.396Z,100451.47
2022-09-02T03:46:56.797Z,100457.78
2022-09-02T03:49:27.834Z,100461.30
2022-09-02T03:51:58.225Z,100461.30
2022-09-02T03:54:28.515Z,100462.82
2022-09-02T03:56:59.529Z,100462.82
2022-09-02T03:59:30.618Z,100466.66
2022-09-02T04:02:02.477Z,100459.30
2022-09-02T04:04:35.132Z,100465.31
2022-09-02T04:07:05.617Z,100465.91
2022-09-02T04:09:36.314Z,100472.91
2022-09-02T04:12:06.723Z,100477.51
2022-09-02T04:14:37.844Z,100475.88
2022-09-02T04:17:08.526Z,100485.65
2022-09-02T04:19:39.214Z,100485.65
2022-09-02T04:22:09.785Z,100485.11
2022-09-02T04:24:40.657Z,100490.93
2022-09-02T04:27:10.820Z,100489.84
2022-09-02T04:29:41.748Z,100498.03
2022-09-02T04:32:12.139Z,100496.84
2022-09-02T04:34:43.086Z,100496.84
2022-09-02T04:37:15.425Z,100503.27
2022-09-02T04:39:48.900Z,100510.75
2022-09-02T04:42:19.760Z,100514.61
2022-09-02T04:44:50.257Z,100514.61
2022-09-02T04:47:21.039Z,100506.98
2022-09-02T04:49:55.045Z,100514.09
2022-09-02T04:52:26.322Z,100513.62
2022-09-02T04:54:56.721Z,100513.62
2022-09-02T04:57:27.020Z,100519.59
2022-09-02T04:59:57.381Z,100526.41
2022-09-02T05:02:28.399Z,100527.27
2022-09-02T05:04:58.913Z,100535.13
2022-09-02T05:07:31.119Z,100535.13
2022-09-02T05:10:02.386Z,100540.88
2022-09-02T05:12:34.244Z,100540.88
2022-09-02T05:15:05.709Z,100539.58
2022-09-02T05:17:37.055Z,100547.91
2022-09-02T05:20:09.092Z,100553.33
2022-09-02T05:22:40.091Z,100558.08
2022-09-02T05:25:11.173Z,100541.52
2022-09-02T05:27:42.299Z,100541.52
2022-09-02T05:30:13.031Z,100553.75
2022-09-02T05:32:43.841Z,100559.08
2022-09-02T05:35:14.369Z,100559.08
2022-09-02T05:37:44.868Z,100571.73
2022-09-02T05:40:15.447Z,100563.16
2022-09-02T05:42:45.850Z,100566.36
2022-09-02T05:45:19.215Z,100566.36
2022-09-02T05:47:50.348Z,100577.72
2022-09-02T05:50:20.770Z,100589.23
2022-09-02T05:52:52.554Z,100589.23
2022-09-02T05:55:23.046Z,100594.89
2022-09-02T05:57:53.584Z,100594.89
2022-09-02T06:00:24.814Z,100605.32
2022-09-02T06:02:56.414Z,100603.11
2022-09-02T06:05:26.997Z,100603.11
2022-09-02T06:07:57.483Z,100601.44
2022-09-02T06:10:28.040Z,100600.76
2022-09-02T06:12:58.491Z,100603.86
2022-09-02T06:15:29.044Z,100610.78
2022-09-02T06:17:59.693Z,100610.78
2022-09-02T06:20:30.227Z,100611.82
2022-09-02T06:23:00.551Z,100615.36
2022-09-02T06:25:30.937Z,100617.38
2022-09-02T06:28:06.417Z,100607.39
2022-09-02T06:30:34.749Z,100614.90
2022-09-02T06:33:05.265Z,100614.90
2022-09-02T06:35:45.023Z,100613.78
2022-09-02T06:38:16.133Z,100623.55
2022-09-02T06:40:53.555Z,100623.55
2022-09-02T06:43:24.257Z,100620.14
2022-09-02T06:45:55.055Z,100632.30
2022-09-02T06:48:26.524Z,100621.34
2022-09-02T06:50:57.290Z,100616.09
2022-09-02T06:53:28.230Z,100613.38
2022-09-02T06:55:59.498Z,100613.38
2022-09-02T06:58:29.764Z,100615.91
2022-09-02T07:01:00.359Z,100620.57
2022-09-02T07:03:30.822Z,100613.33
2022-09-02T07:06:10.013Z,100615.31
2022-09-02T07:08:42.988Z,100614.13
2022-09-02T07:11:24.525Z,100602.67
2022-09-02T07:13:55.044Z,100599.64
2022-09-02T07:16:26.916Z,100598.19
2022-09-02T07:18:58.503Z,100601.49
2022-09-02T07:21:30.994Z,100600.22
2022-09-02T07:24:03.262Z,100600.22
2022-09-02T07:26:34.663Z,100607.52
2022-09-02T07:29:05.939Z,100608.20
2022-09-02T07:31:38.836Z,100608.20
2022-09-02T07:34:09.924Z,100607.38
2022-09-02T07:36:40.756Z,100603.66
2022-09-02T07:39:14.605Z,100603.66
2022-09-02T07:41:47.722Z,100612.63
2022-09-02T07:44:20.908Z,100609.64
2022-09-02T07:46:52.149Z,100607.97
2022-09-02T07:49:24.207Z,100603.51
2022-09-02T07:51:54.999Z,100611.22
2022-09-02T07:54:27.685Z,100606.56
2022-09-02T07:56:58.974Z,100606.56
2022-09-02T07:59:29.576Z,100614.66
2022-09-02T08:02:01.974Z,100614.66
2022-09-02T08:04:36.183Z,100618.20
2022-09-02T08:07:06.908Z,100627.73
2022-09-02T08:09:37.874Z,100616.15
2022-09-02T08:12:08.480Z,100623.66
2022-09-02T08:14:38.958Z,100623.66
2022-09-02T08:17:09.867Z,100617.70
2022-09-02T08:19:40.374Z,100617.70
2022-09-02T08:22:10.710Z,100627.20
2022-09-02T08:24:41.845Z,100620.61
2022-09-02T08:27:12.399Z,100620.61
2022-09-02T08:29:42.913Z,100620.52
2022-09-02T08:32:13.466Z,100620.52
2022-09-02T08:34:44.078Z,100622.17
2022-09-02T08:37:14.492Z,100621.57
2022-09-02T08:39:45.370Z,100619.23
2022-09-02T08:42:21.846Z,100626.23
2022-09-02T08:44:55.597Z,100621.09
2022-09-02T08:47:28.900Z,100621.09
2022-09-02T08:50:19.999Z,100613.37
2022-09-02T08:53:05.356Z,100622.42
2022-09-02T08:55:47.707Z,100622.42
2022-09-02T08:58:21.302Z,100616.81
2022-09-02T09:01:15.443Z,100616.81
2022-09-02T09:03:53.016Z,100616.11
2022-09-02T09:06:44.332Z,100611.06
2022-09-02T09:09:36.163Z,100611.25
2022-09-02T09:12:31.035Z,100619.22
2022-09-02T09:15:24.062Z,100620.83
2022-09-02T09:17:59.397Z,100612.30
2022-09-02T09:20:44.039Z,100616.52
2022-09-02T09:23:35.354Z,100617.85
2022-09-02T09:26:08.786Z,100617.85
2022-09-02T09:28:47.233Z,100613.07
2022-09-02T09:31:21.175Z,100613.07
2022-09-02T09:34:08.997Z,100612.92
2022-09-02T09:39:30.647Z,100617.38
2022-09-02T09:42:13.867Z,100609.27
2022-09-02T09:44:48.362Z,100611.31
2022-09-02T09:47:21.430Z,100606.47
2022-09-02T09:49:54.480Z,100606.47
2022-09-02T09:52:30.710Z,100614.76
2022-09-02T09:58:05.062Z,100621.77
2022-09-02T10:00:36.028Z,100611.51
2022-09-02T10:03:07.616Z,100605.27
2022-09-02T10:05:40.583Z,100612.14
2022-09-02T10:08:19.754Z,100605.75
2022-09-02T10:11:10.933Z,100617.89
2022-09-02T10:13:42.981Z,100617.89
2022-09-02T10:16:36.583Z,100630.94
2022-09-02T10:19:18.762Z,100612.98
2022-09-02T10:22:10.041Z,100621.95
2022-09-02T10:25:07.529Z,100635.88
2022-09-02T10:27:53.913Z,100627.17
2022-09-02T10:30:27.068Z,100627.17
2022-09-02T10:33:20.005Z,100610.63
2022-09-02T10:35:53.356Z,100625.89
2022-09-02T10:38:41.290Z,100625.89
2022-09-02T10:41:23.238Z,100615.36
2022-09-02T10:44:05.273Z,100614.59
2022-09-02T10:46:41.288Z,100621.28
2022-09-02T10:49:17.343Z,100621.28
2022-09-02T10:51:50.493Z,100620.45
2022-09-02T10:54:35.986Z,100619.32
2022-09-02T10:57:14.905Z,100615.60
2022-09-02T10:59:54.298Z,100600.98
2022-09-02T11:02:30.594Z,100605.59
2022-09-02T11:05:03.847Z,100605.59
2022-09-02T11:07:37.328Z,100600.13
2022-09-02T11:10:27.600Z,100604.73
2022-09-02T11:13:03.718Z,100604.73
2022-09-02T11:15:40.104Z,100598.47
2022-09-02T11:18:20.977Z,100585.30
2022-09-02T11:20:54.952Z,100585.30
2022-09-02T11:23:37.238Z,100594.64
2022-09-02T11:26:31.445Z,100594.64
2022-09-02T11:29:07.513Z,100597.07
2022-09-02T11:31:46.977Z,100599.09
2022-09-02T11:34:38.105Z,100593.16
2022-09-02T11:37:17.945Z,100593.16
2022-09-02T11:40:11.556Z,100582.13
2022-09-02T11:42:37.795Z,100582.13
2022-09-02T11:45:20.224Z,100571.36
2022-09-02T11:48:11.071Z,100571.36
2022-09-02T11:51:03.773Z,100573.80
2022-09-02T11:53:39.814Z,100575.77
2022-09-02T11:56:29.531Z,100567.88
2022-09-02T11:59:00.108Z,100562.89
2022-09-02T12:01:43.902Z,100541.30
2022-09-02T12:04:56.180Z,100541.30
2022-09-02T12:07:10.477Z,100559.83
2022-09-02T12:09:46.373Z,100558.30
2022-09-02T12:12:39.329Z,100562.30
2022-09-02T12:15:17.776Z,100552.50
2022-09-02T12:17:53.307Z,100555.55
2022-09-02T12:20:43.776Z,100555.55
2022-09-02T12:26:32.412Z,100545.48
2022-09-02T12:29:27.316Z,100545.48
2022-09-02T12:31:57.679Z,100540.23
2022-09-02T12:34:32.067Z,100537.20
2022-09-02T12:37:04.013Z,100535.67
2022-09-02T12:39:38.690Z,100534.86
2022-09-02T12:42:17.942Z,100534.86
2022-09-02T12:44:55.082Z,100526.97
2022-09-02T12:47:52.546Z,100520.64
2022-09-02T12:53:58.965Z,100517.88
2022-09-02T12:56:29.390Z,100517.88
2022-09-02T12:59:02.682Z,100523.56
2022-09-02T13:01:50.292Z,100514.84
2022-09-02T13:04:45.229Z,100536.56
2022-09-02T13:07:50.036Z,100516.27
2022-09-02T13:10:43.180Z,100525.84
2022-09-02T13:13:42.065Z,100525.84
2022-09-02T13:16:25.405Z,100519.27
2022-09-02T13:19:04.345Z,100518.13
2022-09-02T13:21:56.287Z,100521.13
2022-09-02T13:24:37.625Z,100521.13
2022-09-02T13:27:13.910Z,100534.31
2022-09-02T13:30:03.627Z,100526.84
2022-09-02T13:32:35.429Z,100526.84
2022-09-02T13:35:23.859Z,100526.84
2022-09-02T13:37:59.565Z,100521.84
2022-09-02T13:40:32.758Z,100522.70
2022-09-02T13:43:06.010Z,100520.02
2022-09-02T13:45:37.092Z,100520.02
2022-09-02T13:48:12.818Z,100524.20
2022-09-02T13:50:51.334Z,100517.73
2022-09-02T13:53:53.830Z,100523.79
2022-09-02T13:56:15.757Z,100512.23
2022-09-02T13:58:54.349Z,100512.23
2022-09-02T14:01:45.605Z,100508.85
2022-09-02T14:04:17.464Z,100510.88
2022-09-02T14:06:49.412Z,100500.73
2022-09-02T14:09:24.656Z,100504.57
2022-09-02T14:12:16.171Z,100499.45
2022-09-02T14:14:47.065Z,100499.45
2022-09-02T14:17:24.692Z,100496.58
2022-09-02T14:20:24.562Z,100487.63
2022-09-02T14:23:05.664Z,100491.13
2022-09-02T14:25:43.864Z,100486.56
2022-09-02T14:28:17.114Z,100491.02
2022-09-02T14:30:56.203Z,100488.48
2022-09-02T14:34:05.648Z,100488.48
2022-09-02T14:36:38.686Z,100493.05
2022-09-02T14:39:12.494Z,100486.31
2022-09-02T14:41:51.512Z,100491.63
2022-09-02T14:44:36.548Z,100496.02
2022-09-02T14:47:09.112Z,100493.55
2022-09-02T14:52:31.079Z,100489.41
2022-09-02T14:55:01.333Z,100483.63
2022-09-02T14:57:34.182Z,100483.63
2022-09-02T15:00:12.147Z,100480.44
2022-09-02T15:02:45.403Z,100479.38
2022-09-02T15:05:16.119Z,100476.33
2022-09-02T15:07:46.638Z,100469.26
2022-09-02T15:10:19.693Z,100469.26
2022-09-02T15:12:58.401Z,100468.17
2022-09-02T15:15:30.270Z,100475.72
2022-09-02T15:18:00.932Z,100475.68
2022-09-02T15:20:34.927Z,100470.92
2022-09-02T15:23:05.378Z,100470.92
2022-09-02T15:25:36.786Z,100473.66
2022-09-02T15:28:12.815Z,100473.66
2022-09-02T15:30:45.664Z,100479.84
2022-09-02T15:33:17.567Z,100476.65
2022-09-02T15:35:48.529Z,100476.65
2022-09-02T15:38:19.519Z,100470.42
2022-09-02T15:40:50.303Z,100472.26
2022-09-02T15:43:21.215Z,100467.94
2022-09-02T15:45:51.736Z,100470.16
2022-09-02T15:48:22.299Z,100473.08
2022-09-02T15:50:54.293Z,100480.72
2022-09-02T15:53:25.122Z,100485.90
2022-09-02T15:56:03.613Z,100485.90
2022-09-02T15:58:38.568Z,100477.91
2022-09-02T16:01:09.208Z,100477.91
2022-09-02T16:03:41.251Z,100474.28
2022-09-02T16:06:13.352Z,100473.83
2022-09-02T16:08:44.390Z,100473.92
2022-09-02T16:11:14.901Z,100473.92
2022-09-02T16:13:45.775Z,100475.13
2022-09-02T16:16:36.910Z,100481.55
2022-09-02T16:19:08.119Z,100481.55
2022-09-02T16:21:39.280Z,100486.61
2022-09-02T16:24:10.045Z,100481.33
2022-09-02T16:26:53.818Z,100474.52
2022-09-02T16:29:24.266Z,100474.52
2022-09-02T16:32:14.029Z,100478.43
2022-09-02T16:34:30.070Z,100486.69
2022-09-02T16:37:00.589Z,100483.83
2022-09-02T16:39:31.175Z,100483.83
2022-09-02T16:42:01.652Z,100488.79
2022-09-02T16:44:33.995Z,100487.38
2022-09-02T16:47:04.792Z,100493.53
2022-09-02T16:49:36.299Z,100494.51
2022-09-02T16:52:06.718Z,100503.33
2022-09-02T16:54:40.722Z,100503.33
2022-09-02T16:57:16.710Z,100507.66
2022-09-02T16:59:52.042Z,100506.64
2022-09-02T17:02:23.677Z,100522.09
2022-09-02T17:04:59.842Z,100528.41
2022-09-02T17:07:33.802Z,100522.21
2022-09-02T17:10:05.009Z,100523.57
2022-09-02T17:12:39.660Z,100519.57
2022-09-02T17:15:09.186Z,100519.57
2022-09-02T17:17:39.741Z,100526.27
2022-09-02T17:20:10.536Z,100524.85
2022-09-02T17:22:41.770Z,100523.92
2022-09-02T17:25:12.319Z,100522.33
2022-09-02T17:27:46.006Z,100522.33
2022-09-02T17:30:16.452Z,100528.57
2022-09-02T17:32:47.537Z,100538.58
2022-09-02T17:35:18.355Z,100538.58
2022-09-02T17:37:49.393Z,100534.63
2022-09-02T17:40:19.821Z,100527.83
2022-09-02T17:42:53.272Z,100528.13
2022-09-02T17:45:27.979Z,100535.47
2022-09-02T17:48:08.846Z,100534.75
2022-09-02T17:50:29.735Z,100543.36
2022-09-02T17:53:00.044Z,100544.09
2022-09-02T17:55:33.272Z,100544.09
2022-09-02T17:58:15.029Z,100542.52
2022-09-02T18:00:44.999Z,100540.68
2022-09-02T18:03:33.093Z,100542.33
2022-09-02T18:06:27.242Z,100542.33
2022-09-02T18:09:02.765Z,100547.06
2022-09-02T18:11:36.721Z,100547.06
2022-09-02T18:14:25.122Z,100548.48
2022-09-02T18:17:02.755Z,100527.24
2022-09-02T18:19:45.153Z,100527.24
2022-09-02T18:22:35.927Z,100533.67
2022-09-02T18:25:42.378Z,100530.80
2022-09-02T18:28:24.183Z,100528.56
2022-09-02T18:31:12.299Z,100536.42
2022-09-02T18:33:57.438Z,100536.42
2022-09-02T18:36:56.126Z,100526.26
2022-09-02T18:39:35.599Z,100526.26
2022-09-02T18:42:23.917Z,100525.07
2022-09-02T18:45:06.301Z,100523.10
2022-09-02T18:47:51.516Z,100523.10
2022-09-02T18:50:47.410Z,100522.43
2022-09-02T18:53:01.185Z,100530.64
2022-09-02T18:55:37.266Z,100534.41
2022-09-02T18:58:22.396Z,100518.72
2022-09-02T19:00:56.980Z,100518.72
2022-09-02T19:03:30.297Z,100509.38
2022-09-02T19:06:00.690Z,100509.38
2022-09-02T19:08:33.198Z,100521.05
2022-09-02T19:11:12.423Z,100523.89
2022-09-02T19:13:48.894Z,100531.47
2022-09-02T19:16:22.396Z,100531.47
2022-09-02T19:18:53.507Z,100526.31
2022-09-02T19:21:42.997Z,100534.45
2022-09-02T19:24:16.364Z,100534.45
2022-09-02T19:26:47.025Z,100523.22
2022-09-02T19:29:19.449Z,100523.22
2022-09-02T19:31:52.098Z,100547.20
2022-09-02T19:34:24.434Z,100539.90
2022-09-02T19:36:56.192Z,100534.52
2022-09-02T19:39:30.975Z,100527.98
2022-09-02T19:42:01.543Z,100546.94
2022-09-02T19:44:33.619Z,100540.09
2022-09-02T19:49:39.056Z,100548.30
2022-09-02T19:52:11.328Z,100545.41
2022-09-02T19:54:42.688Z,100545.41
2022-09-02T19:57:13.291Z,100543.04
2022-09-02T19:59:43.826Z,100543.04
2022-09-02T20:02:16.474Z,100543.22
2022-09-02T20:04:49.626Z,100531.66
2022-09-02T20:07:24.428Z,100517.39
2022-09-02T20:09:54.851Z,100523.98
2022-09-02T20:12:25.664Z,100525.09
2022-09-02T20:14:56.703Z,100531.66
2022-09-02T20:17:28.451Z,100531.66
2022-09-02T20:20:00.529Z,100538.65
2022-09-02T20:22:31.489Z,100538.23
2022-09-02T20:25:02.563Z,100538.23
2022-09-02T20:27:39.270Z,100542.95
2022-09-02T20:30:18.065Z,100535.27
2022-09-02T20:32:54.865Z,100535.27
2022-09-02T20:35:54.918Z,100535.66
2022-09-02T20:38:37.245Z,100533.92
2022-09-02T20:41:24.872Z,100533.92
2022-09-02T20:44:09.638Z,100538.72
2022-09-02T20:46:51.235Z,100555.55
2022-09-02T20:49:24.745Z,100539.77
2022-09-02T20:55:14.426Z,100530.42
2022-09-02T20:58:09.749Z,100525.65
2022-09-02T21:00:48.850Z,100533.92
2022-09-02T21:03:21.743Z,100530.32
2022-09-02T21:05:55.091Z,100527.27
2022-09-02T21:08:46.056Z,100538.59
2022-09-02T21:11:19.024Z,100538.59
2022-09-02T21:14:11.529Z,100531.88
2022-09-02T21:16:44.902Z,100533.52
2022-09-02T21:19:26.894Z,100533.52
2022-09-02T21:22:05.932Z,100533.14
2022-09-02T21:24:48.081Z,100536.69
2022-09-02T21:27:46.485Z,100536.69
2022-09-02T21:30:19.600Z,100533.18
2022-09-02T21:35:54.031Z,100538.33
2022-09-02T21:38:38.673Z,100538.59
2022-09-02T21:41:28.741Z,100541.63
2022-09-02T21:44:36.499Z,100536.48
2022-09-02T21:47:21.773Z,100549.10
2022-09-02T21:50:08.260Z,100532.18
2022-09-02T21:52:41.944Z,100525.17
2022-09-02T21:55:29.758Z,100528.45
2022-09-02T21:58:09.980Z,100527.88
2022-09-02T22:00:43.375Z,100524.23
2022-09-02T22:03:19.566Z,100527.97
2022-09-02T22:05:53.359Z,100528.23
2022-09-02T22:14:17.426Z,100511.28
2022-09-02T22:17:00.520Z,100511.28
2022-09-02T22:19:33.745Z,100512.46
2022-09-02T22:22:39.466Z,100516.73
2022-09-02T22:25:13.027Z,100516.73
2022-09-02T22:27:52.226Z,100504.69
2022-09-02T22:30:22.882Z,100504.69
2022-09-02T22:33:02.074Z,100488.36
2022-09-02T22:35:41.963Z,100488.36
2022-09-02T22:38:23.786Z,100483.94
2022-09-02T22:41:06.135Z,100488.69
2022-09-02T22:43:39.259Z,100491.39
2022-09-02T22:46:16.729Z,100495.25
2022-09-02T22:48:52.760Z,100495.25
2022-09-02T22:51:37.863Z,100475.27
2022-09-02T22:54:08.298Z,100495.45
2022-09-02T22:56:50.856Z,100490.32
2022-09-02T22:59:42.116Z,100490.32
2022-09-02T23:02:33.455Z,100489.86
2022-09-02T23:05:30.382Z,100479.61
2022-09-02T23:08:00.703Z,100479.61
2022-09-02T23:10:31.454Z,100484.83
2022-09-02T23:13:07.185Z,100482.63
2022-09-02T23:15:46.657Z,100494.98
2022-09-02T23:18:43.111Z,100494.84
2022-09-02T23:21:24.986Z,100489.81
2022-09-02T23:24:04.098Z,100489.81
2022-09-02T23:26:57.795Z,100493.66
2022-09-02T23:29:28.122Z,100505.19
2022-09-02T23:32:24.936Z,100505.40
2022-09-02T23:35:24.149Z,100505.40
2022-09-02T23:38:15.115Z,100505.80
2022-09-02T23:41:10.495Z,100497.72
2022-09-02T23:43:43.672Z,100501.65
2022-09-02T23:49:48.543Z,100500.48
2022-09-02T23:52:39.576Z,100493.91
2022-09-02T23:55:39.413Z,100504.23
2022-09-02T23:58:23.140Z,100498.47
